createdAt,value
2023-06-02T00:02:55.234Z,16.58
2023-06-02T00:06:00.919Z,16.52
2023-06-02T00:09:09.205Z,16.51
2023-06-02T00:12:12.295Z,16.50
2023-06-02T00:15:15.251Z,16.47
2023-06-02T00:18:18.182Z,16.44
2023-06-02T00:21:21.850Z,16.36
2023-06-02T00:24:25.926Z,16.36
2023-06-02T00:27:28.743Z,16.33
2023-06-02T00:30:31.771Z,16.30
2023-06-02T00:33:35.199Z,16.24
2023-06-02T00:36:38.162Z,16.19
2023-06-02T00:39:41.321Z,16.16
2023-06-02T00:42:44.137Z,16.10
2023-06-02T00:45:47.077Z,16.03
2023-06-02T00:48:50.704Z,16.03
2023-06-02T00:51:54.949Z,16.05
2023-06-02T00:54:58.295Z,16.00
2023-06-02T00:58:05.178Z,15.93
2023-06-02T01:01:13.584Z,15.86
2023-06-02T01:04:18.151Z,15.85
2023-06-02T01:07:25.525Z,15.81
2023-06-02T01:10:30.074Z,15.77
2023-06-02T01:13:32.996Z,15.68
2023-06-02T01:16:36.488Z,15.64
2023-06-02T01:19:39.758Z,15.71
2023-06-02T01:26:10.635Z,15.62
2023-06-02T01:29:14.793Z,15.61
2023-06-02T01:32:26.754Z,15.58
2023-06-02T01:35:33.033Z,15.53
2023-06-02T01:38:38.296Z,15.55
2023-06-02T01:41:44.346Z,15.48
2023-06-02T01:44:47.984Z,15.44
2023-06-02T01:47:50.866Z,15.46
2023-06-02T01:50:53.629Z,15.51
2023-06-02T01:53:56.395Z,15.54
2023-06-02T01:56:59.130Z,15.54
2023-06-02T02:00:02.757Z,15.53
2023-06-02T02:03:06.328Z,15.53
2023-06-02T02:06:09.161Z,15.60
2023-06-02T02:09:11.909Z,15.63
2023-06-02T02:12:14.618Z,15.62
2023-06-02T02:15:18.326Z,15.65
2023-06-02T02:18:21.926Z,15.71
2023-06-02T02:21:24.983Z,15.79
2023-06-02T02:24:27.806Z,15.82
2023-06-02T02:27:30.826Z,15.84
2023-06-02T02:30:33.960Z,15.82
2023-06-02T02:33:36.729Z,15.83
2023-06-02T02:36:41.244Z,15.82
2023-06-02T02:39:45.028Z,15.78
2023-06-02T02:42:47.818Z,15.64
2023-06-02T02:45:50.786Z,15.49
2023-06-02T02:48:54.464Z,15.43
2023-06-02T02:51:58.258Z,15.43
2023-06-02T02:55:01.311Z,15.35
2023-06-02T02:58:04.222Z,15.26
2023-06-02T03:01:07.065Z,15.22
2023-06-02T03:04:12.457Z,15.20
2023-06-02T03:07:15.330Z,15.22
2023-06-02T03:10:19.594Z,15.21
2023-06-02T03:13:23.650Z,15.17
2023-06-02T03:16:29.535Z,15.20
2023-06-02T03:19:35.565Z,15.27
2023-06-02T03:22:38.529Z,15.27
2023-06-02T03:25:42.061Z,15.27
2023-06-02T03:28:47.021Z,15.24
2023-06-02T03:31:55.337Z,15.23
2023-06-02T03:35:01.666Z,15.25
2023-06-02T03:38:07.359Z,15.27
2023-06-02T03:41:10.267Z,15.32
2023-06-02T03:44:13.208Z,15.44
2023-06-02T03:47:17.042Z,15.48
2023-06-02T03:50:19.822Z,15.57
2023-06-02T03:53:22.889Z,15.58
2023-06-02T03:56:26.550Z,15.66
2023-06-02T03:59:31.690Z,15.67
2023-06-02T04:02:34.797Z,15.70
2023-06-02T04:05:37.818Z,15.76
2023-06-02T04:08:41.460Z,15.83
2023-06-02T04:11:44.326Z,15.89
2023-06-02T04:14:47.488Z,15.94
2023-06-02T04:17:50.409Z,16.17
2023-06-02T04:20:53.639Z,16.23
2023-06-02T04:23:57.078Z,16.46
2023-06-02T04:26:59.830Z,16.54
2023-06-02T04:30:05.163Z,16.67
2023-06-02T04:33:09.881Z,16.72
2023-06-02T04:36:13.498Z,16.75
2023-06-02T04:39:17.560Z,16.86
2023-06-02T04:42:21.875Z,17.18
2023-06-02T04:45:25.304Z,17.53
2023-06-02T04:48:29.147Z,17.90
2023-06-02T04:51:32.008Z,18.40
2023-06-02T04:54:36.283Z,18.78
2023-06-02T04:57:39.547Z,19.12
2023-06-02T05:00:42.606Z,19.72
2023-06-02T05:03:45.862Z,20.17
2023-06-02T05:06:49.315Z,20.46
2023-06-02T05:09:52.467Z,20.62
2023-06-02T05:12:55.802Z,20.53
2023-06-02T05:15:59.306Z,20.84
2023-06-02T05:19:02.159Z,20.97
2023-06-02T05:22:06.552Z,20.95
2023-06-02T05:25:11.654Z,21.09
2023-06-02T05:28:16.075Z,21.23
2023-06-02T05:31:20.188Z,21.38
2023-06-02T05:34:23.670Z,21.46
2023-06-02T05:37:26.491Z,21.70
2023-06-02T05:40:29.342Z,21.85
2023-06-02T05:43:33.094Z,22.23
2023-06-02T05:46:35.963Z,22.50
2023-06-02T05:49:38.987Z,22.57
2023-06-02T05:52:42.277Z,22.86
2023-06-02T05:55:48.080Z,23.00
2023-06-02T05:58:52.471Z,23.02
2023-06-02T06:01:55.462Z,23.22
2023-06-02T06:04:58.787Z,23.56
2023-06-02T06:08:01.702Z,23.52
2023-06-02T06:11:05.711Z,23.72
2023-06-02T06:14:09.142Z,23.81
2023-06-02T06:17:13.984Z,24.16
2023-06-02T06:20:17.361Z,23.96
2023-06-02T06:23:20.206Z,24.37
2023-06-02T06:26:23.960Z,24.23
2023-06-02T06:29:27.337Z,24.64
2023-06-02T06:32:32.489Z,24.75
2023-06-02T06:35:38.924Z,24.98
2023-06-02T06:38:47.436Z,25.12
2023-06-02T06:41:50.230Z,25.34
2023-06-02T06:45:11.403Z,25.81
2023-06-02T06:48:14.870Z,25.89
2023-06-02T06:51:18.414Z,25.24
2023-06-02T06:54:21.216Z,25.52
2023-06-02T06:57:24.030Z,26.10
2023-06-02T07:00:49.398Z,26.10
2023-06-02T07:07:28.407Z,26.70
2023-06-02T07:10:33.796Z,27.57
2023-06-02T07:13:40.400Z,28.38
2023-06-02T07:16:48.986Z,28.81
2023-06-02T07:19:52.049Z,29.55
2023-06-02T07:22:55.067Z,30.56
2023-06-02T07:25:57.921Z,31.30
2023-06-02T07:29:00.977Z,31.04
2023-06-02T07:32:03.944Z,31.76
2023-06-02T07:35:11.743Z,30.70
2023-06-02T07:38:16.641Z,31.99
2023-06-02T07:41:21.906Z,30.78
2023-06-02T07:44:24.896Z,31.84
2023-06-02T07:47:27.783Z,31.75
2023-06-02T07:50:30.689Z,31.74
2023-06-02T07:53:33.550Z,33.21
2023-06-02T07:56:37.343Z,33.71
2023-06-02T07:59:40.198Z,31.25
2023-06-02T08:02:47.855Z,32.01
2023-06-02T08:05:51.865Z,32.32
2023-06-02T08:08:54.910Z,33.63
2023-06-02T08:11:57.857Z,32.66
2023-06-02T08:15:01.252Z,34.05
2023-06-02T08:18:04.556Z,33.38
2023-06-02T08:21:07.763Z,32.74
2023-06-02T08:24:50.460Z,33.80
2023-06-02T08:28:03.744Z,33.64
2023-06-02T08:31:07.002Z,32.56
2023-06-02T08:34:23.490Z,34.18
2023-06-02T08:37:26.479Z,35.08
2023-06-02T08:40:37.437Z,35.25
2023-06-02T08:43:42.491Z,35.07
2023-06-02T08:46:52.179Z,35.31
2023-06-02T08:49:55.019Z,35.86
2023-06-02T08:53:01.269Z,35.60
2023-06-02T08:56:06.448Z,35.17
2023-06-02T08:59:09.854Z,34.45
2023-06-02T09:02:13.600Z,36.55
2023-06-02T09:05:17.873Z,36.85
2023-06-02T09:08:21.442Z,36.31
2023-06-02T09:11:24.965Z,36.02
2023-06-02T09:14:27.811Z,37.18
2023-06-02T09:17:31.660Z,37.91
2023-06-02T09:20:36.163Z,37.72
2023-06-02T09:23:53.933Z,38.72
2023-06-02T09:26:57.099Z,35.54
2023-06-02T09:30:04.193Z,36.75
2023-06-02T09:33:14.361Z,35.81
2023-06-02T09:36:30.617Z,36.56
2023-06-02T09:39:37.720Z,37.66
2023-06-02T09:42:45.166Z,38.46
2023-06-02T09:45:51.321Z,37.50
2023-06-02T09:48:58.792Z,37.26
2023-06-02T09:52:18.901Z,35.14
2023-06-02T09:55:21.876Z,36.40
2023-06-02T09:58:24.799Z,38.09
2023-06-02T10:01:30.847Z,37.93
2023-06-02T10:04:33.883Z,37.43
2023-06-02T10:08:08.732Z,37.30
2023-06-02T10:11:28.343Z,37.35
2023-06-02T10:15:10.997Z,38.93
2023-06-02T10:18:51.740Z,38.40
2023-06-02T10:23:01.618Z,36.83
2023-06-02T10:26:40.808Z,38.47
2023-06-02T10:29:45.064Z,35.68
2023-06-02T10:32:50.155Z,36.35
2023-06-02T10:36:01.063Z,34.03
2023-06-02T10:39:41.800Z,35.37
2023-06-02T10:43:24.134Z,36.11
2023-06-02T10:46:27.171Z,35.49
2023-06-02T10:49:56.470Z,34.80
2023-06-02T10:53:02.519Z,33.94
2023-06-02T10:56:36.601Z,33.50
2023-06-02T10:59:39.673Z,33.09
2023-06-02T11:02:43.430Z,32.47
2023-06-02T11:05:48.864Z,32.00
2023-06-02T11:08:53.453Z,31.03
2023-06-02T11:11:56.530Z,30.64
2023-06-02T11:15:05.842Z,30.30
2023-06-02T11:18:23.813Z,29.79
2023-06-02T11:21:27.028Z,31.97
2023-06-02T11:24:30.208Z,34.07
2023-06-02T11:27:40.333Z,35.33
2023-06-02T11:30:43.177Z,35.62
2023-06-02T11:33:52.485Z,36.14
2023-06-02T11:36:55.360Z,37.14
2023-06-02T11:39:58.273Z,36.70
2023-06-02T11:43:01.716Z,37.30
2023-06-02T11:46:09.431Z,36.50
2023-06-02T11:49:12.552Z,35.51
2023-06-02T11:52:15.522Z,34.94
2023-06-02T11:55:18.635Z,34.99
2023-06-02T11:58:28.382Z,34.67
2023-06-02T12:01:34.840Z,33.31
2023-06-02T12:04:44.299Z,32.89
2023-06-02T12:07:47.328Z,31.97
2023-06-02T12:10:51.294Z,31.24
2023-06-02T12:14:08.372Z,30.77
2023-06-02T12:17:11.287Z,30.33
2023-06-02T12:20:14.246Z,30.25
2023-06-02T12:23:17.060Z,30.24
2023-06-02T12:26:20.379Z,30.58
2023-06-02T12:29:23.457Z,30.36
2023-06-02T12:32:27.728Z,29.99
2023-06-02T12:35:39.453Z,30.30
2023-06-02T12:38:51.604Z,30.13
2023-06-02T12:41:54.726Z,30.08
2023-06-02T12:44:57.578Z,29.65
2023-06-02T12:48:03.025Z,29.92
2023-06-02T12:51:08.806Z,29.62
2023-06-02T12:54:12.146Z,29.16
2023-06-02T12:57:15.113Z,29.47
2023-06-02T13:00:18.859Z,29.16
2023-06-02T13:03:21.757Z,29.44
2023-06-02T13:06:25.955Z,29.38
2023-06-02T13:09:28.995Z,29.56
2023-06-02T13:12:32.420Z,29.32
2023-06-02T13:15:35.765Z,29.22
2023-06-02T13:18:40.541Z,28.63
2023-06-02T13:21:43.839Z,28.47
2023-06-02T13:24:47.959Z,28.16
2023-06-02T13:27:51.057Z,27.89
2023-06-02T13:30:54.480Z,28.03
2023-06-02T13:33:57.258Z,28.04
2023-06-02T13:37:00.450Z,27.65
2023-06-02T13:40:04.971Z,27.53
2023-06-02T13:43:09.257Z,27.38
2023-06-02T13:46:12.317Z,27.51
2023-06-02T13:49:18.383Z,27.38
2023-06-02T13:52:21.133Z,27.12
2023-06-02T13:55:23.899Z,26.96
2023-06-02T13:58:26.769Z,27.28
2023-06-02T14:01:29.636Z,26.86
2023-06-02T14:04:32.875Z,26.87
2023-06-02T14:07:35.771Z,26.61
2023-06-02T14:10:38.558Z,26.82
2023-06-02T14:13:41.489Z,26.49
2023-06-02T14:16:44.335Z,26.45
2023-06-02T14:19:47.191Z,26.62
2023-06-02T14:22:49.988Z,26.54
2023-06-02T14:25:52.799Z,26.64
2023-06-02T14:28:55.825Z,27.04
2023-06-02T14:31:58.719Z,26.93
2023-06-02T14:35:01.845Z,27.12
2023-06-02T14:38:04.866Z,27.20
2023-06-02T14:41:08.069Z,27.20
2023-06-02T14:44:11.013Z,27.32
2023-06-02T14:47:14.065Z,27.25
2023-06-02T14:50:17.047Z,27.48
2023-06-02T14:53:19.889Z,27.49
2023-06-02T14:56:23.753Z,27.76
2023-06-02T14:59:26.548Z,27.52
2023-06-02T15:02:29.642Z,27.58
2023-06-02T15:05:32.415Z,27.72
2023-06-02T15:08:35.274Z,28.14
2023-06-02T15:11:40.399Z,27.97
2023-06-02T15:14:43.168Z,27.97
2023-06-02T15:17:46.228Z,27.75
2023-06-02T15:20:50.105Z,27.68
2023-06-02T15:23:52.973Z,27.94
2023-06-02T15:26:57.075Z,28.11
2023-06-02T15:29:59.950Z,28.04
2023-06-02T15:33:03.383Z,27.73
2023-06-02T15:36:06.865Z,27.83
2023-06-02T15:39:09.877Z,27.51
2023-06-02T15:42:12.737Z,27.45
2023-06-02T15:45:15.716Z,27.08
2023-06-02T15:48:18.656Z,27.00
2023-06-02T15:51:21.428Z,26.86
2023-06-02T15:54:24.890Z,26.94
2023-06-02T15:57:27.742Z,26.62
2023-06-02T16:00:30.671Z,26.57
2023-06-02T16:03:33.577Z,26.51
2023-06-02T16:06:37.786Z,26.43
2023-06-02T16:09:40.780Z,26.23
2023-06-02T16:12:43.530Z,26.24
2023-06-02T16:15:46.290Z,26.28
2023-06-02T16:18:49.102Z,26.23
2023-06-02T16:21:51.965Z,26.15
2023-06-02T16:24:54.848Z,26.16
2023-06-02T16:27:57.793Z,26.07
2023-06-02T16:31:00.732Z,26.19
2023-06-02T16:34:03.583Z,26.17
2023-06-02T16:37:08.204Z,26.21
2023-06-02T16:40:11.297Z,26.16
2023-06-02T16:43:19.620Z,25.96
2023-06-02T16:46:22.472Z,25.75
2023-06-02T16:49:25.330Z,25.54
2023-06-02T16:52:28.338Z,25.45
2023-06-02T16:55:31.153Z,25.28
2023-06-02T16:58:34.003Z,25.13
2023-06-02T17:01:36.826Z,25.00
2023-06-02T17:04:39.806Z,24.88
2023-06-02T17:07:42.695Z,24.78
2023-06-02T17:10:45.468Z,24.71
2023-06-02T17:13:53.163Z,24.58
2023-06-02T17:16:56.153Z,24.48
2023-06-02T17:19:58.989Z,24.41
2023-06-02T17:23:02.039Z,24.37
2023-06-02T17:26:05.010Z,24.22
2023-06-02T17:29:08.173Z,24.20
2023-06-02T17:32:15.604Z,24.18
2023-06-02T17:35:18.467Z,24.09
2023-06-02T17:38:21.621Z,23.99
2023-06-02T17:41:24.572Z,23.90
2023-06-02T17:44:27.504Z,23.81
2023-06-02T17:47:30.698Z,23.74
2023-06-02T17:50:33.573Z,23.68
2023-06-02T17:53:36.364Z,23.63
2023-06-02T17:56:39.180Z,23.51
2023-06-02T17:59:42.303Z,23.41
2023-06-02T18:02:45.288Z,23.31
2023-06-02T18:05:48.759Z,23.23
2023-06-02T18:08:51.698Z,23.09
2023-06-02T18:11:54.693Z,23.00
2023-06-02T18:15:01.139Z,22.98
2023-06-02T18:18:07.285Z,22.85
2023-06-02T18:21:10.028Z,22.71
2023-06-02T18:24:13.742Z,22.58
2023-06-02T18:27:16.851Z,22.44
2023-06-02T18:30:20.010Z,22.35
2023-06-02T18:33:22.877Z,22.25
2023-06-02T18:36:25.713Z,22.10
2023-06-02T18:39:29.051Z,21.96
2023-06-02T18:42:32.388Z,21.83
2023-06-02T18:45:35.250Z,21.70
2023-06-02T18:48:37.980Z,21.56
2023-06-02T18:51:40.781Z,21.47
2023-06-02T18:54:43.647Z,21.46
2023-06-02T18:57:46.510Z,21.36
2023-06-02T19:00:49.389Z,21.28
2023-06-02T19:03:52.538Z,21.20
2023-06-02T19:07:20.300Z,21.20
2023-06-02T19:10:25.939Z,21.24
2023-06-02T19:13:29.186Z,21.07
2023-06-02T19:16:32.174Z,20.93
2023-06-02T19:19:35.141Z,20.84
2023-06-02T19:22:40.653Z,20.85
2023-06-02T19:25:43.593Z,20.85
2023-06-02T19:28:46.446Z,20.59
2023-06-02T19:31:49.242Z,20.42
2023-06-02T19:34:52.113Z,20.44
2023-06-02T19:37:54.895Z,20.35
2023-06-02T19:40:58.144Z,20.29
2023-06-02T19:44:01.165Z,20.27
2023-06-02T19:47:04.564Z,20.17
2023-06-02T19:50:08.053Z,20.13
2023-06-02T19:53:10.949Z,20.07
2023-06-02T19:56:13.806Z,20.07
2023-06-02T19:59:17.595Z,20.04
2023-06-02T20:02:22.345Z,20.00
2023-06-02T20:05:25.199Z,19.90
2023-06-02T20:08:28.073Z,19.79
2023-06-02T20:11:31.004Z,19.74
2023-06-02T20:14:33.914Z,19.69
2023-06-02T20:17:37.036Z,19.64
2023-06-02T20:20:39.956Z,19.66
2023-06-02T20:23:42.827Z,19.65
2023-06-02T20:26:46.449Z,19.62
2023-06-02T20:29:49.502Z,19.61
2023-06-02T20:32:52.444Z,19.55
2023-06-02T20:35:55.260Z,19.46
2023-06-02T20:38:58.389Z,19.41
2023-06-02T20:42:01.208Z,19.32
2023-06-02T20:45:04.278Z,19.25
2023-06-02T20:48:07.320Z,19.36
2023-06-02T20:51:10.273Z,19.35
2023-06-02T20:54:13.246Z,19.39
2023-06-02T20:57:16.453Z,19.36
2023-06-02T21:00:20.542Z,19.31
2023-06-02T21:03:24.652Z,19.31
2023-06-02T21:06:27.735Z,19.25
2023-06-02T21:09:31.707Z,19.03
2023-06-02T21:12:34.778Z,18.87
2023-06-02T21:15:37.624Z,18.76
2023-06-02T21:18:40.679Z,18.70
2023-06-02T21:21:43.573Z,18.67
2023-06-02T21:24:46.578Z,18.62
2023-06-02T21:27:49.366Z,18.58
2023-06-02T21:30:52.127Z,18.65
2023-06-02T21:33:54.855Z,18.62
2023-06-02T21:36:57.717Z,18.59
2023-06-02T21:40:00.569Z,18.46
2023-06-02T21:43:03.514Z,18.42
2023-06-02T21:46:07.009Z,18.37
2023-06-02T21:49:09.928Z,18.45
2023-06-02T21:52:12.821Z,18.37
2023-06-02T21:55:15.688Z,18.40
2023-06-02T21:58:18.610Z,18.34
2023-06-02T22:01:21.871Z,18.28
2023-06-02T22:04:25.259Z,18.17
2023-06-02T22:07:28.260Z,18.09
2023-06-02T22:10:31.064Z,18.08
2023-06-02T22:13:33.874Z,18.01
2023-06-02T22:16:36.675Z,17.99
2023-06-02T22:19:39.606Z,17.97
2023-06-02T22:22:42.414Z,17.97
2023-06-02T22:25:45.215Z,18.01
2023-06-02T22:28:48.038Z,18.00
2023-06-02T22:31:51.435Z,18.01
2023-06-02T22:34:54.409Z,17.91
2023-06-02T22:37:57.653Z,17.79
2023-06-02T22:41:00.466Z,17.76
2023-06-02T22:44:03.340Z,17.70
2023-06-02T22:47:06.646Z,17.68
2023-06-02T22:50:09.763Z,17.65
2023-06-02T22:53:12.608Z,17.58
2023-06-02T22:56:15.523Z,17.54
2023-06-02T22:59:18.306Z,17.45
2023-06-02T23:02:21.104Z,17.48
2023-06-02T23:05:23.941Z,17.44
2023-06-02T23:08:26.777Z,17.40
2023-06-02T23:11:29.659Z,17.34
2023-06-02T23:14:32.453Z,17.22
2023-06-02T23:17:35.268Z,17.11
2023-06-02T23:20:38.169Z,17.00
2023-06-02T23:23:41.119Z,16.92
2023-06-02T23:26:44.005Z,16.89
2023-06-02T23:29:46.825Z,16.85
2023-06-02T23:32:49.725Z,16.91
2023-06-02T23:35:52.546Z,17.03
2023-06-02T23:38:55.775Z,17.06
2023-06-02T23:41:58.690Z,17.05
2023-06-02T23:45:01.564Z,17.18
2023-06-02T23:48:04.747Z,17.19
2023-06-02T23:51:10.589Z,17.13
2023-06-02T23:54:13.397Z,17.15
2023-06-02T23:57:17.200Z,17.19
